createdAt,value
2023-01-27T00:00:53.962Z,998.07
2023-01-27T00:01:53.938Z,998.07
2023-01-27T00:02:54.009Z,998.08
2023-01-27T00:03:53.935Z,998.10
2023-01-27T00:04:53.878Z,998.09
2023-01-27T00:05:53.844Z,998.07
2023-01-27T00:06:53.799Z,998.09
2023-01-27T00:07:53.807Z,998.10
2023-01-27T00:08:53.778Z,998.13
2023-01-27T00:09:53.777Z,998.10
2023-01-27T00:10:53.694Z,998.09
2023-01-27T00:11:53.690Z,998.15
2023-01-27T00:12:53.647Z,998.08
2023-01-27T00:13:53.645Z,998.10
2023-01-27T00:14:53.587Z,998.07
2023-01-27T00:15:53.630Z,998.07
2023-01-27T00:16:53.540Z,998.07
2023-01-27T00:17:53.516Z,998.07
2023-01-27T00:18:53.484Z,998.05
2023-01-27T00:19:53.460Z,998.05
2023-01-27T00:20:53.480Z,998.04
2023-01-27T00:21:53.402Z,998.03
2023-01-27T00:22:53.372Z,998.06
2023-01-27T00:23:53.358Z,997.97
2023-01-27T00:24:53.315Z,998.02
2023-01-27T00:25:53.301Z,998.00
2023-01-27T00:26:53.267Z,997.99
2023-01-27T00:27:53.273Z,997.97
2023-01-27T00:28:53.212Z,997.92
2023-01-27T00:29:53.186Z,997.92
2023-01-27T00:30:53.220Z,997.91
2023-01-27T00:31:53.175Z,997.91
2023-01-27T00:32:53.123Z,997.88
2023-01-27T00:33:53.074Z,997.86
2023-01-27T00:34:53.071Z,997.89
2023-01-27T00:35:53.028Z,997.88
2023-01-27T00:36:53.003Z,997.90
2023-01-27T00:37:52.968Z,997.91
2023-01-27T00:38:52.976Z,997.90
2023-01-27T00:39:52.928Z,997.90
2023-01-27T00:40:52.889Z,997.89
2023-01-27T00:41:52.859Z,997.89
2023-01-27T00:42:52.848Z,997.91
2023-01-27T00:43:52.814Z,997.90
2023-01-27T00:44:52.786Z,997.86
2023-01-27T00:45:52.774Z,997.88
2023-01-27T00:46:52.836Z,997.90
2023-01-27T00:47:52.700Z,997.84
2023-01-27T00:48:52.680Z,997.86
2023-01-27T00:49:52.640Z,997.90
2023-01-27T00:50:52.679Z,997.90
2023-01-27T00:51:52.599Z,997.89
2023-01-27T00:52:52.580Z,997.91
2023-01-27T00:53:52.541Z,997.85
2023-01-27T00:54:52.514Z,997.86
2023-01-27T00:55:52.504Z,997.87
2023-01-27T00:56:52.469Z,997.84
2023-01-27T00:57:52.469Z,997.81
2023-01-27T00:58:52.403Z,997.80
2023-01-27T00:59:52.395Z,997.83
2023-01-27T01:00:52.348Z,997.80
2023-01-27T01:01:52.349Z,997.82
2023-01-27T01:02:52.383Z,997.81
2023-01-27T01:03:52.274Z,997.85
2023-01-27T01:04:52.248Z,997.82
2023-01-27T01:05:52.216Z,997.84
2023-01-27T01:06:52.224Z,997.87
2023-01-27T01:07:52.170Z,997.87
2023-01-27T01:08:52.197Z,997.89
2023-01-27T01:09:52.200Z,997.89
2023-01-27T01:10:52.089Z,997.90
2023-01-27T01:11:52.057Z,997.93
2023-01-27T01:12:52.053Z,997.89
2023-01-27T01:13:53.747Z,997.91
2023-01-27T01:14:51.978Z,997.94
2023-01-27T01:15:51.978Z,997.92
2023-01-27T01:16:51.930Z,997.91
2023-01-27T01:17:51.889Z,997.90
2023-01-27T01:18:51.933Z,997.95
2023-01-27T01:19:51.857Z,997.96
2023-01-27T01:20:51.811Z,997.96
2023-01-27T01:21:51.792Z,998.00
2023-01-27T01:22:51.762Z,998.00
2023-01-27T01:23:51.848Z,998.01
2023-01-27T01:24:51.719Z,997.97
2023-01-27T01:25:51.683Z,998.01
2023-01-27T01:26:51.655Z,998.01
2023-01-27T01:27:51.627Z,998.02
2023-01-27T01:28:51.600Z,998.00
2023-01-27T01:29:51.579Z,998.02
2023-01-27T01:30:51.619Z,997.98
2023-01-27T01:31:51.521Z,997.97
2023-01-27T01:32:51.495Z,998.00
2023-01-27T01:33:51.469Z,997.98
2023-01-27T01:34:51.437Z,998.01
2023-01-27T01:35:51.403Z,998.02
2023-01-27T01:36:51.388Z,998.02
2023-01-27T01:37:51.354Z,998.01
2023-01-27T01:38:51.358Z,998.03
2023-01-27T01:39:51.312Z,998.03
2023-01-27T01:40:51.280Z,998.05
2023-01-27T01:41:51.253Z,998.07
2023-01-27T01:42:51.226Z,998.06
2023-01-27T01:43:51.191Z,998.06
2023-01-27T01:44:51.190Z,998.08
2023-01-27T01:45:51.172Z,998.06
2023-01-27T01:46:51.200Z,998.05
2023-01-27T01:47:51.095Z,998.02
2023-01-27T01:48:51.103Z,998.03
2023-01-27T01:49:51.030Z,998.02
2023-01-27T01:50:51.006Z,997.98
2023-01-27T01:51:50.983Z,998.00
2023-01-27T01:52:50.952Z,998.00
2023-01-27T01:53:50.929Z,998.00
2023-01-27T01:54:50.907Z,997.97
2023-01-27T01:55:50.877Z,998.01
2023-01-27T01:56:50.886Z,998.00
2023-01-27T01:57:50.827Z,997.95
2023-01-27T01:58:50.790Z,997.99
2023-01-27T01:59:50.771Z,997.98
2023-01-27T02:00:50.853Z,997.97
2023-01-27T02:01:50.730Z,997.93
2023-01-27T02:02:50.717Z,997.93
2023-01-27T02:03:50.661Z,997.93
2023-01-27T02:04:50.631Z,997.94
2023-01-27T02:05:50.622Z,997.94
2023-01-27T02:06:50.581Z,997.96
2023-01-27T02:07:50.552Z,997.89
2023-01-27T02:08:50.526Z,997.91
2023-01-27T02:09:50.498Z,997.94
2023-01-27T02:10:50.473Z,997.86
2023-01-27T02:11:50.441Z,997.86
2023-01-27T02:12:50.423Z,997.83
2023-01-27T02:13:50.387Z,997.84
2023-01-27T02:14:50.388Z,997.80
2023-01-27T02:15:50.327Z,997.83
2023-01-27T02:16:50.331Z,997.84
2023-01-27T02:17:50.285Z,997.79
2023-01-27T02:18:50.252Z,997.78
2023-01-27T02:19:50.247Z,997.77
2023-01-27T02:20:50.204Z,997.78
2023-01-27T02:21:50.180Z,997.76
2023-01-27T02:22:50.147Z,997.74
2023-01-27T02:23:50.148Z,997.78
2023-01-27T02:24:50.104Z,997.78
2023-01-27T02:25:50.077Z,997.80
2023-01-27T02:26:50.036Z,997.80
2023-01-27T02:27:50.012Z,997.83
2023-01-27T02:28:49.993Z,997.85
2023-01-27T02:29:49.956Z,997.80
2023-01-27T02:30:50.020Z,997.87
2023-01-27T02:31:50.103Z,997.79
2023-01-27T02:32:49.878Z,997.81
2023-01-27T02:33:49.854Z,997.82
2023-01-27T02:34:49.833Z,997.84
2023-01-27T02:35:49.793Z,997.81
2023-01-27T02:36:49.775Z,997.85
2023-01-27T02:37:49.755Z,997.84
2023-01-27T02:38:49.722Z,997.84
2023-01-27T02:39:49.692Z,997.87
2023-01-27T02:40:49.681Z,997.88
2023-01-27T02:41:49.640Z,997.87
2023-01-27T02:42:49.608Z,997.87
2023-01-27T02:43:49.610Z,997.89
2023-01-27T02:44:49.564Z,997.87
2023-01-27T02:45:49.608Z,997.91
2023-01-27T02:46:49.513Z,997.94
2023-01-27T02:47:49.473Z,997.99
2023-01-27T02:48:49.534Z,997.99
2023-01-27T02:49:49.415Z,997.99
2023-01-27T02:50:49.395Z,997.99
2023-01-27T02:51:49.382Z,997.96
2023-01-27T02:52:49.426Z,997.98
2023-01-27T02:53:49.323Z,998.00
2023-01-27T02:54:49.287Z,998.00
2023-01-27T02:55:49.259Z,997.97
2023-01-27T02:56:49.250Z,998.00
2023-01-27T02:57:49.206Z,997.99
2023-01-27T02:58:49.192Z,997.98
2023-01-27T02:59:49.239Z,998.00
2023-01-27T03:00:49.138Z,998.02
2023-01-27T03:01:49.800Z,998.03
2023-01-27T03:02:49.107Z,998.01
2023-01-27T03:03:49.041Z,998.00
2023-01-27T03:04:49.021Z,998.00
2023-01-27T03:05:48.995Z,997.98
2023-01-27T03:06:49.096Z,998.01
2023-01-27T03:07:48.967Z,998.02
2023-01-27T03:08:48.924Z,998.01
2023-01-27T03:09:48.895Z,998.04
2023-01-27T03:10:48.865Z,998.05
2023-01-27T03:11:48.831Z,998.07
2023-01-27T03:12:48.803Z,998.04
2023-01-27T03:13:48.798Z,998.08
2023-01-27T03:14:48.751Z,998.07
2023-01-27T03:15:48.738Z,998.09
2023-01-27T03:16:48.695Z,998.08
2023-01-27T03:17:48.663Z,998.08
2023-01-27T03:18:48.641Z,998.05
2023-01-27T03:19:48.612Z,998.03
2023-01-27T03:20:48.583Z,998.06
2023-01-27T03:21:48.747Z,998.02
2023-01-27T03:22:48.536Z,998.08
2023-01-27T03:23:48.513Z,998.05
2023-01-27T03:24:48.492Z,998.03
2023-01-27T03:25:48.546Z,998.02
2023-01-27T03:26:48.429Z,998.03
2023-01-27T03:27:48.398Z,998.03
2023-01-27T03:28:48.385Z,998.05
2023-01-27T03:29:48.346Z,998.06
2023-01-27T03:30:48.491Z,998.03
2023-01-27T03:31:48.449Z,998.06
2023-01-27T03:32:48.306Z,998.08
2023-01-27T03:33:48.237Z,998.09
2023-01-27T03:34:48.218Z,998.08
2023-01-27T03:35:48.198Z,998.12
2023-01-27T03:36:48.158Z,998.08
2023-01-27T03:37:48.138Z,998.10
2023-01-27T03:38:48.108Z,998.07
2023-01-27T03:39:48.080Z,998.10
2023-01-27T03:40:48.075Z,998.12
2023-01-27T03:41:48.024Z,998.10
2023-01-27T03:42:48.016Z,998.09
2023-01-27T03:43:47.969Z,998.08
2023-01-27T03:44:47.951Z,998.14
2023-01-27T03:45:47.953Z,998.10
2023-01-27T03:46:47.893Z,998.13
2023-01-27T03:47:47.860Z,998.13
2023-01-27T03:48:47.927Z,998.09
2023-01-27T03:49:47.813Z,998.20
2023-01-27T03:50:47.781Z,998.14
2023-01-27T03:51:47.758Z,998.18
2023-01-27T03:52:47.724Z,998.15
2023-01-27T03:53:47.706Z,998.17
2023-01-27T03:54:47.670Z,998.17
2023-01-27T03:55:47.644Z,998.17
2023-01-27T03:56:47.641Z,998.16
2023-01-27T03:57:47.589Z,998.16
2023-01-27T03:58:47.611Z,998.17
2023-01-27T03:59:47.539Z,998.16
2023-01-27T04:00:47.529Z,998.15
2023-01-27T04:01:47.529Z,998.17
2023-01-27T04:02:47.589Z,998.18
2023-01-27T04:03:47.450Z,998.20
2023-01-27T04:04:47.410Z,998.16
2023-01-27T04:05:47.377Z,998.20
2023-01-27T04:06:47.359Z,998.23
2023-01-27T04:07:47.319Z,998.17
2023-01-27T04:08:47.302Z,998.17
2023-01-27T04:09:47.265Z,998.20
2023-01-27T04:10:47.256Z,998.17
2023-01-27T04:11:47.217Z,998.21
2023-01-27T04:12:47.187Z,998.18
2023-01-27T04:13:47.178Z,998.19
2023-01-27T04:14:47.137Z,998.20
2023-01-27T04:15:47.109Z,998.21
2023-01-27T04:16:47.086Z,998.17
2023-01-27T04:17:47.061Z,998.21
2023-01-27T04:18:49.235Z,998.16
2023-01-27T04:19:47.000Z,998.20
2023-01-27T04:20:46.976Z,998.21
2023-01-27T04:21:46.952Z,998.19
2023-01-27T04:22:46.933Z,998.23
2023-01-27T04:23:46.893Z,998.24
2023-01-27T04:24:46.875Z,998.25
2023-01-27T04:25:46.832Z,998.23
2023-01-27T04:26:46.818Z,998.23
2023-01-27T04:27:46.780Z,998.27
2023-01-27T04:28:51.453Z,998.26
2023-01-27T04:29:46.788Z,998.26
2023-01-27T04:30:46.720Z,998.25
2023-01-27T04:32:46.655Z,998.29
2023-01-27T04:33:46.640Z,998.29
2023-01-27T04:34:46.606Z,998.37
2023-01-27T04:35:46.580Z,998.34
2023-01-27T04:36:46.558Z,998.33
2023-01-27T04:37:46.516Z,998.34
2023-01-27T04:38:46.498Z,998.30
2023-01-27T04:39:46.469Z,998.33
2023-01-27T04:40:46.453Z,998.33
2023-01-27T04:41:46.414Z,998.33
2023-01-27T04:42:46.390Z,998.32
2023-01-27T04:43:46.397Z,998.35
2023-01-27T04:44:46.339Z,998.32
2023-01-27T04:45:46.361Z,998.35
2023-01-27T04:46:46.295Z,998.37
2023-01-27T04:47:46.256Z,998.35
2023-01-27T04:48:46.225Z,998.37
2023-01-27T04:49:46.198Z,998.38
2023-01-27T04:50:46.166Z,998.41
2023-01-27T04:51:47.095Z,998.41
2023-01-27T04:52:46.122Z,998.37
2023-01-27T04:53:46.090Z,998.39
2023-01-27T04:54:46.057Z,998.35
2023-01-27T04:55:46.040Z,998.35
2023-01-27T04:56:46.004Z,998.32
2023-01-27T04:57:45.999Z,998.32
2023-01-27T04:58:45.959Z,998.36
2023-01-27T04:59:45.941Z,998.35
2023-01-27T05:00:45.914Z,998.35
2023-01-27T05:01:45.918Z,998.40
2023-01-27T05:02:45.891Z,998.38
2023-01-27T05:03:45.823Z,998.39
2023-01-27T05:04:45.796Z,998.35
2023-01-27T05:05:45.777Z,998.40
2023-01-27T05:06:45.740Z,998.40
2023-01-27T05:07:45.723Z,998.39
2023-01-27T05:08:45.689Z,998.41
2023-01-27T05:09:45.675Z,998.40
2023-01-27T05:10:45.637Z,998.39
2023-01-27T05:11:45.643Z,998.40
2023-01-27T05:12:45.578Z,998.37
2023-01-27T05:13:45.564Z,998.36
2023-01-27T05:14:45.551Z,998.34
2023-01-27T05:15:45.533Z,998.36
2023-01-27T05:16:45.790Z,998.38
2023-01-27T05:17:45.452Z,998.34
2023-01-27T05:18:45.425Z,998.36
2023-01-27T05:19:45.403Z,998.37
2023-01-27T05:20:45.371Z,998.36
2023-01-27T05:21:45.347Z,998.36
2023-01-27T05:22:45.341Z,998.38
2023-01-27T05:23:45.335Z,998.34
2023-01-27T05:24:45.296Z,998.39
2023-01-27T05:25:45.246Z,998.33
2023-01-27T05:26:45.222Z,998.38
2023-01-27T05:27:45.184Z,998.36
2023-01-27T05:28:45.150Z,998.40
2023-01-27T05:29:45.156Z,998.42
2023-01-27T05:30:45.166Z,998.44
2023-01-27T05:31:45.130Z,998.44
2023-01-27T05:32:45.050Z,998.49
2023-01-27T05:33:45.026Z,998.46
2023-01-27T05:34:44.995Z,998.49
2023-01-27T05:35:44.969Z,998.51
2023-01-27T05:36:44.959Z,998.49
2023-01-27T05:37:44.914Z,998.51
2023-01-27T05:38:44.893Z,998.52
2023-01-27T05:39:44.872Z,998.54
2023-01-27T05:40:44.836Z,998.54
2023-01-27T05:41:44.829Z,998.57
2023-01-27T05:42:44.781Z,998.57
2023-01-27T05:43:44.785Z,998.60
2023-01-27T05:44:44.718Z,998.62
2023-01-27T05:45:44.732Z,998.62
2023-01-27T05:46:44.716Z,998.65
2023-01-27T05:47:44.650Z,998.65
2023-01-27T05:48:44.631Z,998.64
2023-01-27T05:49:44.611Z,998.67
2023-01-27T05:50:44.566Z,998.67
2023-01-27T05:51:44.579Z,998.66
2023-01-27T05:52:44.516Z,998.63
2023-01-27T05:53:44.498Z,998.65
2023-01-27T05:54:44.463Z,998.60
2023-01-27T05:55:44.433Z,998.67
2023-01-27T05:56:44.416Z,998.64
2023-01-27T05:57:44.392Z,998.67
2023-01-27T05:58:44.365Z,998.65
2023-01-27T05:59:44.338Z,998.65
2023-01-27T06:00:44.298Z,998.69
2023-01-27T06:01:44.313Z,998.66
2023-01-27T06:02:44.296Z,998.67
2023-01-27T06:03:44.239Z,998.66
2023-01-27T06:04:44.193Z,998.68
2023-01-27T06:05:44.164Z,998.67
2023-01-27T06:06:44.147Z,998.65
2023-01-27T06:07:44.123Z,998.65
2023-01-27T06:08:44.083Z,998.64
2023-01-27T06:09:44.074Z,998.61
2023-01-27T06:10:44.039Z,998.62
2023-01-27T06:11:44.001Z,998.61
2023-01-27T06:12:43.971Z,998.61
2023-01-27T06:13:43.954Z,998.61
2023-01-27T06:14:43.941Z,998.63
2023-01-27T06:15:43.911Z,998.60
2023-01-27T06:16:43.929Z,998.56
2023-01-27T06:17:43.840Z,998.55
2023-01-27T06:18:43.808Z,998.60
2023-01-27T06:19:43.804Z,998.62
2023-01-27T06:20:43.767Z,998.65
2023-01-27T06:21:43.744Z,998.64
2023-01-27T06:22:43.707Z,998.70
2023-01-27T06:23:43.679Z,998.67
2023-01-27T06:24:43.664Z,998.67
2023-01-27T06:25:43.657Z,998.67
2023-01-27T06:26:43.592Z,998.65
2023-01-27T06:27:43.578Z,998.68
2023-01-27T06:28:43.554Z,998.70
2023-01-27T06:29:43.517Z,998.76
2023-01-27T06:30:43.504Z,998.77
2023-01-27T06:31:43.511Z,998.84
2023-01-27T06:32:43.440Z,998.81
2023-01-27T06:33:43.410Z,998.84
2023-01-27T06:34:43.382Z,998.85
2023-01-27T06:35:43.360Z,998.86
2023-01-27T06:36:43.330Z,998.83
2023-01-27T06:37:43.306Z,998.86
2023-01-27T06:38:43.268Z,998.86
2023-01-27T06:39:43.255Z,998.89
2023-01-27T06:40:43.225Z,998.84
2023-01-27T06:41:43.207Z,998.91
2023-01-27T06:42:43.179Z,998.88
2023-01-27T06:43:43.149Z,998.85
2023-01-27T06:44:43.120Z,998.87
2023-01-27T06:45:43.099Z,998.89
2023-01-27T06:46:43.139Z,998.93
2023-01-27T06:47:43.040Z,998.99
2023-01-27T06:48:43.025Z,999.00
2023-01-27T06:49:42.989Z,999.05
2023-01-27T06:50:42.974Z,998.99
2023-01-27T06:51:42.948Z,999.02
2023-01-27T06:52:42.899Z,998.97
2023-01-27T06:53:42.974Z,999.00
2023-01-27T06:54:42.855Z,999.03
2023-01-27T06:55:42.837Z,998.97
2023-01-27T06:56:42.804Z,999.00
2023-01-27T06:57:42.771Z,999.02
2023-01-27T06:58:42.748Z,999.01
2023-01-27T06:59:42.756Z,999.02
2023-01-27T07:00:42.691Z,998.99
2023-01-27T07:01:42.732Z,999.02
2023-01-27T07:02:42.719Z,999.03
2023-01-27T07:03:44.705Z,999.03
2023-01-27T07:04:42.587Z,999.02
2023-01-27T07:05:42.555Z,999.03
2023-01-27T07:06:42.530Z,999.05
2023-01-27T07:07:42.501Z,999.15
2023-01-27T07:08:42.495Z,999.10
2023-01-27T07:09:52.066Z,999.13
2023-01-27T07:10:42.421Z,999.11
2023-01-27T07:11:42.400Z,999.13
2023-01-27T07:12:42.364Z,999.13
2023-01-27T07:13:42.342Z,999.14
2023-01-27T07:14:42.318Z,999.16
2023-01-27T07:15:42.338Z,999.17
2023-01-27T07:16:42.282Z,999.18
2023-01-27T07:17:42.238Z,999.20
2023-01-27T07:18:42.202Z,999.18
2023-01-27T07:19:42.178Z,999.20
2023-01-27T07:20:42.173Z,999.23
2023-01-27T07:21:42.128Z,999.23
2023-01-27T07:22:42.108Z,999.26
2023-01-27T07:23:42.105Z,999.31
2023-01-27T07:24:42.063Z,999.30
2023-01-27T07:25:42.022Z,999.33
2023-01-27T07:26:42.007Z,999.31
2023-01-27T07:27:41.988Z,999.29
2023-01-27T07:28:41.954Z,999.31
2023-01-27T07:29:41.931Z,999.29
2023-01-27T07:30:41.909Z,999.30
2023-01-27T07:31:41.958Z,999.30
2023-01-27T07:32:41.859Z,999.31
2023-01-27T07:33:41.816Z,999.37
2023-01-27T07:34:41.781Z,999.39
2023-01-27T07:35:41.761Z,999.39
2023-01-27T07:36:41.722Z,999.44
2023-01-27T07:37:41.703Z,999.40
2023-01-27T07:38:41.715Z,999.41
2023-01-27T07:39:41.650Z,999.41
2023-01-27T07:40:41.636Z,999.42
2023-01-27T07:41:41.602Z,999.37
2023-01-27T07:42:41.583Z,999.38
2023-01-27T07:43:41.568Z,999.42
2023-01-27T07:44:41.515Z,999.44
2023-01-27T07:45:41.514Z,999.40
2023-01-27T07:46:41.463Z,999.42
2023-01-27T07:47:41.440Z,999.41
2023-01-27T07:48:41.419Z,999.37
2023-01-27T07:49:41.398Z,999.40
2023-01-27T07:50:41.370Z,999.42
2023-01-27T07:51:41.342Z,999.41
2023-01-27T07:52:41.307Z,999.41
2023-01-27T07:53:41.282Z,999.47
2023-01-27T07:54:41.257Z,999.51
2023-01-27T07:55:41.244Z,999.53
2023-01-27T07:56:41.210Z,999.50
2023-01-27T07:57:41.177Z,999.53
2023-01-27T07:58:41.165Z,999.50
2023-01-27T07:59:41.128Z,999.54
2023-01-27T08:00:41.143Z,999.56
2023-01-27T08:01:41.071Z,999.62
2023-01-27T08:02:41.052Z,999.60
2023-01-27T08:03:41.021Z,999.61
2023-01-27T08:04:52.588Z,999.62
2023-01-27T08:05:40.981Z,999.58
2023-01-27T08:06:40.949Z,999.60
2023-01-27T08:07:40.960Z,999.62
2023-01-27T08:08:40.907Z,999.63
2023-01-27T08:09:40.873Z,999.63
2023-01-27T08:10:40.833Z,999.61
2023-01-27T08:11:40.818Z,999.69
2023-01-27T08:12:40.787Z,999.70
2023-01-27T08:13:40.768Z,999.66
2023-01-27T08:14:40.836Z,999.69
2023-01-27T08:15:40.711Z,999.72
2023-01-27T08:16:40.751Z,999.72
2023-01-27T08:17:40.657Z,999.71
2023-01-27T08:18:40.627Z,999.73
2023-01-27T08:19:40.613Z,999.74
2023-01-27T08:20:40.595Z,999.73
2023-01-27T08:21:40.555Z,999.72
2023-01-27T08:22:40.529Z,999.74
2023-01-27T08:23:40.539Z,999.76
2023-01-27T08:24:40.467Z,999.73
2023-01-27T08:25:40.450Z,999.70
2023-01-27T08:26:40.416Z,999.70
2023-01-27T08:27:40.404Z,999.69
2023-01-27T08:28:40.365Z,999.71
2023-01-27T08:29:40.367Z,999.71
2023-01-27T08:30:40.349Z,999.70
2023-01-27T08:31:40.322Z,999.76
2023-01-27T08:32:40.261Z,999.68
2023-01-27T08:33:40.239Z,999.74
2023-01-27T08:34:40.228Z,999.78
2023-01-27T08:35:40.192Z,999.81
2023-01-27T08:36:40.162Z,999.82
2023-01-27T08:37:40.138Z,999.84
2023-01-27T08:38:40.102Z,999.79
2023-01-27T08:39:40.087Z,999.78
2023-01-27T08:40:40.049Z,999.78
2023-01-27T08:41:40.035Z,999.79
2023-01-27T08:42:40.014Z,999.76
2023-01-27T08:43:40.002Z,999.74
2023-01-27T08:44:39.948Z,999.76
2023-01-27T08:45:39.956Z,999.81
2023-01-27T08:46:39.914Z,999.80
2023-01-27T08:47:39.885Z,999.87
2023-01-27T08:48:39.871Z,999.87
2023-01-27T08:49:39.834Z,999.87
2023-01-27T08:50:39.794Z,999.90
2023-01-27T08:51:39.769Z,999.93
2023-01-27T08:52:39.746Z,999.88
2023-01-27T08:53:39.722Z,999.93
2023-01-27T08:54:39.699Z,999.96
2023-01-27T08:55:39.715Z,999.98
2023-01-27T08:56:39.661Z,1000.00
2023-01-27T08:57:39.643Z,999.98
2023-01-27T08:58:39.587Z,999.95
2023-01-27T08:59:39.567Z,999.96
2023-01-27T09:00:39.534Z,999.98
2023-01-27T09:01:39.562Z,999.96
2023-01-27T09:02:39.522Z,1000.02
2023-01-27T09:03:39.455Z,999.98
2023-01-27T09:04:39.483Z,1000.04
2023-01-27T09:05:39.404Z,1000.03
2023-01-27T09:06:39.384Z,1000.03
2023-01-27T09:07:39.373Z,1000.05
2023-01-27T09:08:39.398Z,1000.04
2023-01-27T09:09:39.310Z,1000.05
2023-01-27T09:10:39.279Z,1000.10
2023-01-27T09:11:39.259Z,1000.06
2023-01-27T09:12:39.235Z,1000.09
2023-01-27T09:13:39.200Z,1000.11
2023-01-27T09:14:39.174Z,1000.11
2023-01-27T09:15:39.173Z,1000.11
2023-01-27T09:16:39.123Z,1000.12
2023-01-27T09:17:39.093Z,1000.19
2023-01-27T09:18:39.076Z,1000.20
2023-01-27T09:19:39.051Z,1000.22
2023-01-27T09:20:39.022Z,1000.14
2023-01-27T09:21:38.990Z,1000.16
2023-01-27T09:22:38.969Z,1000.15
2023-01-27T09:23:38.948Z,1000.14
2023-01-27T09:24:38.928Z,1000.16
2023-01-27T09:25:38.947Z,1000.19
2023-01-27T09:26:38.885Z,1000.18
2023-01-27T09:27:40.179Z,1000.20
2023-01-27T09:28:38.824Z,1000.21
2023-01-27T09:29:38.798Z,1000.16
2023-01-27T09:30:40.852Z,1000.22
2023-01-27T09:31:38.797Z,1000.23
2023-01-27T09:32:38.727Z,1000.25
2023-01-27T09:33:38.760Z,1000.26
2023-01-27T09:34:38.668Z,1000.26
2023-01-27T09:35:38.664Z,1000.24
2023-01-27T09:36:38.612Z,1000.24
2023-01-27T09:37:38.609Z,1000.21
2023-01-27T09:38:38.564Z,1000.24
2023-01-27T09:39:38.528Z,1000.23
2023-01-27T09:40:38.544Z,1000.24
2023-01-27T09:41:38.484Z,1000.22
2023-01-27T09:42:38.465Z,1000.22
2023-01-27T09:43:38.436Z,1000.25
2023-01-27T09:44:38.404Z,1000.22
2023-01-27T09:45:38.378Z,1000.27
2023-01-27T09:46:38.367Z,1000.29
2023-01-27T09:47:38.344Z,1000.33
2023-01-27T09:48:38.297Z,1000.32
2023-01-27T09:49:38.268Z,1000.30
2023-01-27T09:50:38.252Z,1000.33
2023-01-27T09:51:38.226Z,1000.34
2023-01-27T09:52:47.222Z,1000.39
2023-01-27T09:53:38.181Z,1000.38
2023-01-27T09:54:38.142Z,1000.38
2023-01-27T09:55:38.118Z,1000.34
2023-01-27T09:56:38.117Z,1000.36
2023-01-27T09:57:38.077Z,1000.41
2023-01-27T09:58:38.047Z,1000.37
2023-01-27T09:59:38.020Z,1000.39
2023-01-27T10:00:37.995Z,1000.37
2023-01-27T10:01:38.048Z,1000.34
2023-01-27T10:02:37.940Z,1000.37
2023-01-27T10:03:37.914Z,1000.35
2023-01-27T10:04:37.950Z,1000.35
2023-01-27T10:05:37.864Z,1000.33
2023-01-27T10:06:37.844Z,1000.31
2023-01-27T10:07:37.804Z,1000.33
2023-01-27T10:08:37.790Z,1000.32
2023-01-27T10:09:37.761Z,1000.34
2023-01-27T10:10:37.755Z,1000.29
2023-01-27T10:11:37.709Z,1000.29
2023-01-27T10:12:37.705Z,1000.26
2023-01-27T10:13:37.656Z,1000.30
2023-01-27T10:14:37.669Z,1000.29
2023-01-27T10:15:37.600Z,1000.25
2023-01-27T10:16:37.656Z,1000.29
2023-01-27T10:17:37.549Z,1000.23
2023-01-27T10:18:37.533Z,1000.23
2023-01-27T10:19:37.503Z,1000.23
2023-01-27T10:20:37.476Z,1000.20
2023-01-27T10:21:37.450Z,1000.22
2023-01-27T10:22:37.436Z,1000.18
2023-01-27T10:23:37.429Z,1000.16
2023-01-27T10:24:37.374Z,1000.15
2023-01-27T10:25:37.361Z,1000.16
2023-01-27T10:26:37.325Z,1000.17
2023-01-27T10:27:37.294Z,1000.17
2023-01-27T10:28:37.300Z,1000.15
2023-01-27T10:29:37.283Z,1000.18
2023-01-27T10:30:37.274Z,1000.15
2023-01-27T10:31:37.313Z,1000.19
2023-01-27T10:32:37.172Z,1000.19
2023-01-27T10:33:37.143Z,1000.25
2023-01-27T10:34:37.132Z,1000.19
2023-01-27T10:35:37.093Z,1000.22
2023-01-27T10:36:37.090Z,1000.19
2023-01-27T10:37:37.042Z,1000.22
2023-01-27T10:38:37.028Z,1000.20
2023-01-27T10:39:36.986Z,1000.16
2023-01-27T10:40:36.976Z,1000.17
2023-01-27T10:41:36.933Z,1000.17
2023-01-27T10:42:36.958Z,1000.16
2023-01-27T10:43:36.897Z,1000.15
2023-01-27T10:44:36.866Z,1000.14
2023-01-27T10:45:36.858Z,1000.17
2023-01-27T10:46:36.854Z,1000.13
2023-01-27T10:47:36.783Z,1000.15
2023-01-27T10:48:36.770Z,1000.15
2023-01-27T10:49:36.761Z,1000.15
2023-01-27T10:50:36.717Z,1000.13
2023-01-27T10:51:36.694Z,1000.15
2023-01-27T10:52:36.667Z,1000.13
2023-01-27T10:53:36.630Z,1000.12
2023-01-27T10:54:36.615Z,1000.09
2023-01-27T10:55:36.613Z,1000.08
2023-01-27T10:56:36.577Z,1000.05
2023-01-27T10:57:36.537Z,1000.08
2023-01-27T10:58:36.514Z,1000.08
2023-01-27T10:59:36.487Z,1000.06
2023-01-27T11:01:19.472Z,1000.07
2023-01-27T11:01:36.512Z,1000.09
2023-01-27T11:02:36.414Z,1000.08
2023-01-27T11:03:36.394Z,1000.11
2023-01-27T11:04:36.424Z,1000.07
2023-01-27T11:05:36.341Z,1000.08
2023-01-27T11:06:36.312Z,1000.05
2023-01-27T11:07:36.297Z,1000.02
2023-01-27T11:08:36.284Z,999.99
2023-01-27T11:09:36.267Z,1000.03
2023-01-27T11:10:36.215Z,1000.05
2023-01-27T11:11:36.195Z,999.98
2023-01-27T11:12:36.160Z,999.95
2023-01-27T11:13:36.130Z,999.96
2023-01-27T11:14:38.526Z,999.97
2023-01-27T11:15:36.096Z,999.98
2023-01-27T11:16:36.155Z,999.99
2023-01-27T11:17:36.073Z,999.98
2023-01-27T11:18:36.047Z,999.99
2023-01-27T11:19:36.003Z,1000.00
2023-01-27T11:20:35.963Z,999.98
2023-01-27T11:21:35.971Z,1000.01
2023-01-27T11:22:35.921Z,1000.02
2023-01-27T11:23:35.877Z,1000.01
2023-01-27T11:24:35.866Z,1000.01
2023-01-27T11:25:35.878Z,999.93
2023-01-27T11:26:35.804Z,999.96
2023-01-27T11:27:35.773Z,999.99
2023-01-27T11:28:35.754Z,999.97
2023-01-27T11:29:35.730Z,999.98
2023-01-27T11:30:35.739Z,999.98
2023-01-27T11:31:37.739Z,999.96
2023-01-27T11:32:35.701Z,999.92
2023-01-27T11:33:35.622Z,999.92
2023-01-27T11:34:35.623Z,999.95
2023-01-27T11:35:35.600Z,999.95
2023-01-27T11:36:35.561Z,999.97
2023-01-27T11:37:35.530Z,999.97
2023-01-27T11:38:35.499Z,999.93
2023-01-27T11:39:35.474Z,999.92
2023-01-27T11:40:35.477Z,999.95
2023-01-27T11:41:35.422Z,999.94
2023-01-27T11:42:35.399Z,999.93
2023-01-27T11:43:35.371Z,999.91
2023-01-27T11:44:35.351Z,999.89
2023-01-27T11:45:35.378Z,999.89
2023-01-27T11:46:35.291Z,999.84
2023-01-27T11:47:35.313Z,999.84
2023-01-27T11:48:35.249Z,999.88
2023-01-27T11:49:35.216Z,999.84
2023-01-27T11:50:35.202Z,999.84
2023-01-27T11:51:35.172Z,999.83
2023-01-27T11:52:35.140Z,999.86
2023-01-27T11:53:35.131Z,999.90
2023-01-27T11:54:35.092Z,999.83
2023-01-27T11:55:35.087Z,999.87
2023-01-27T11:56:35.047Z,999.85
2023-01-27T11:57:35.059Z,999.88
2023-01-27T11:58:34.989Z,999.89
2023-01-27T11:59:34.961Z,999.90
2023-01-27T12:00:34.946Z,999.95
2023-01-27T12:01:34.925Z,999.89
2023-01-27T12:02:34.891Z,999.89
2023-01-27T12:03:34.878Z,999.94
2023-01-27T12:04:34.920Z,999.91
2023-01-27T12:05:34.812Z,999.95
2023-01-27T12:06:34.800Z,999.94
2023-01-27T12:07:34.761Z,999.96
2023-01-27T12:08:34.775Z,999.94
2023-01-27T12:09:34.725Z,999.91
2023-01-27T12:10:34.747Z,999.92
2023-01-27T12:11:34.668Z,999.94
2023-01-27T12:12:34.645Z,999.91
2023-01-27T12:13:34.625Z,999.95
2023-01-27T12:14:34.586Z,999.96
2023-01-27T12:15:34.572Z,999.89
2023-01-27T12:16:34.535Z,999.91
2023-01-27T12:17:34.511Z,999.88
2023-01-27T12:18:34.492Z,999.88
2023-01-27T12:19:34.457Z,999.90
2023-01-27T12:20:34.443Z,999.89
2023-01-27T12:21:34.407Z,999.87
2023-01-27T12:22:34.424Z,999.85
2023-01-27T12:23:34.383Z,999.90
2023-01-27T12:24:34.377Z,999.85
2023-01-27T12:25:34.321Z,999.84